Latest Weather Observations for Point Perpendicular

IDN60801

Issued at 11:06 pm EDT Friday 19 December 2014 (issued every 30 minutes, with the page automatically refreshed every 10 minutes)

About weather observations | Map of weather stations | Latest weather observations for NSW | Other Formats
Station Details ID: 068151 Name: POINT PERPENDICULAR AWS Lat: -35.09 Lon: 150.80 Height: 85.0 m
Data from the previous 72 hours. | See also: Recent months at Point Perpendicular
Date/Time
EDT
Temp
°C
App
Temp
°C
Dew
Point
Rel
Hum
%
Delta-T
°C
Wind Press
QNH
hPa
Press
MSL
hPa
Rain
since 9 am
mm
Dir
 
Spd
km/h
Gust
km/h
Spd
kts
Gust
kts
19/11:00pm 18.0 15.6 11.3 65 3.6 SSE 15 24 8 13 1018.8 1018.6 0.0
19/10:30pm 18.1 15.3 11.4 65 3.7 SSE 17 28 9 15 1018.6 1018.4 0.0
19/10:00pm 18.1 14.9 11.2 64 3.8 SSE 19 28 10 15 1018.5 1018.3 0.0
19/09:30pm 18.2 15.9 11.7 66 3.6 SSE 15 22 8 12 1018.2 1018.0 0.0
19/09:00pm 18.1 16.0 11.0 63 3.8 SSE 13 22 7 12 1017.8 1017.6 0.0
19/08:30pm 18.1 15.2 11.0 63 3.9 SSE 17 28 9 15 1017.6 1017.3 0.0
19/08:00pm 18.2 15.2 10.8 62 4.0 SSE 17 26 9 14 1017.1 1016.8 0.0
19/07:30pm 18.2 15.4 11.5 65 3.7 SSE 17 24 9 13 1016.6 1016.3 0.0
19/07:00pm 18.4 15.5 11.0 62 4.0 SSE 17 28 9 15 1016.0 1015.7 0.0
19/06:30pm 18.4 15.1 11.0 62 4.0 SSE 19 30 10 16 1015.4 1015.1 0.0
19/06:00pm 18.6 15.4 11.4 63 3.9 SE 19 26 10 14 1014.9 1014.6 0.0
19/05:30pm 19.0 16.1 11.1 60 4.3 SE 17 28 9 15 1014.6 1014.3 0.0
19/05:00pm 19.1 15.6 10.1 56 4.8 SE 19 30 10 16 1014.1 1013.8 0.0
19/04:30pm 19.8 16.3 10.2 54 5.2 SSE 19 32 10 17 1014.0 1013.7 0.0
19/04:00pm 19.1 15.4 9.6 54 5.1 SE 19 28 10 15 1013.8 1013.5 0.0
19/03:30pm 19.7 15.5 9.6 52 5.4 SE 22 35 12 19 1013.8 1013.5 0.0
19/03:00pm 19.8 16.1 10.0 53 5.3 SE 20 32 11 17 1013.4 1013.1 0.0
19/02:30pm 19.6 15.3 9.5 52 5.4 SE 22 33 12 18 1013.3 1013.0 0.0
19/02:00pm 19.8 14.3 9.1 50 5.7 SSE 28 39 15 21 1013.1 1012.8 0.0
19/01:30pm 19.4 14.6 9.0 51 5.5 SSE 24 35 13 19 1013.2 1012.9 0.0
19/01:00pm 19.6 15.4 9.8 53 5.2 SSE 22 35 12 19 1013.5 1013.2 0.0
19/12:30pm 19.6 14.8 8.9 50 5.6 SSE 24 33 13 18 1013.6 1013.3 0.0
19/12:00pm 19.3 14.0 8.6 50 5.6 SSE 26 35 14 19 1013.7 1013.4 0.0
19/11:30am 19.1 14.3 8.7 51 5.4 S 24 39 13 21 1013.4 1013.1 0.0
19/11:00am 19.2 14.5 10.5 57 4.7 S 26 39 14 21 1013.3 1013.0 0.0
19/10:30am 18.6 14.8 9.7 56 4.7 S 20 35 11 19 1013.3 1013.0 0.0
19/10:00am 18.2 13.3 8.5 53 5.0 S 24 39 13 21 1013.4 1013.1 0.0
19/09:30am 18.2 14.3 9.5 57 4.6 S 20 33 11 18 1013.0 1012.7 0.0
19/09:00am 18.0 14.0 10.4 61 4.1 S 22 39 12 21 1012.8 1012.5 0.0
19/08:30am 18.6 14.0 11.2 62 4.0 S 26 35 14 19 1012.7 1012.4 0.0
19/08:00am 18.1 13.9 11.0 63 3.9 S 24 35 13 19 1011.9 1011.6 0.0
19/07:30am 18.2 14.4 11.0 63 3.9 S 22 35 12 19 1011.8 1011.5 0.0
19/07:00am 18.2 14.2 10.6 61 4.1 S 22 33 12 18 1011.3 1011.0 0.0
19/06:30am 18.3 15.1 11.8 66 3.6 S 20 32 11 17 1011.3 1011.0 0.0
19/06:00am 17.9 14.9 12.4 70 3.1 S 20 32 11 17 1010.8 1010.6 0.0
19/05:30am 17.8 14.2 12.9 73 2.8 S 24 33 13 18 1010.4 1010.2 0.0
19/05:00am 17.9 14.6 12.8 72 2.9 S 22 39 12 21 1009.9 1009.7 0.0
19/04:30am 18.2 15.0 13.1 72 2.9 S 22 39 12 21 1009.4 1009.2 0.0
19/04:24am 18.0 13.3 12.0 68 3.3 S 28 46 15 25 1009.1 1008.9 0.0
19/04:00am 17.8 13.5 13.3 75 2.6 S 28 44 15 24 1008.8 1008.6 0.0
19/03:33am 17.7 12.3 14.0 79 2.1 S 35 54 19 29 1008.4 1008.2 0.0
19/03:30am 17.8 12.8 14.1 79 2.1 S 33 50 18 27 1008.1 1007.9 0.0
19/03:00am 17.8 13.6 14.7 82 1.8 S 30 50 16 27 1008.0 1007.8 0.0
19/02:37am 18.1 13.7 15.2 83 1.7 S 32 70 17 38 1007.0 1006.7 0.0
19/02:30am 18.4 14.6 15.8 85 1.5 S 30 52 16 28 1006.9 1006.6 0.0
19/02:00am 18.4 14.1 15.5 83 1.7 S 32 52 17 28 1005.8 1005.5 0.0
19/01:49am 18.2 14.2 16.2 88 1.2 SSW 32 50 17 27 1005.4 1005.1 0.0
19/01:44am 18.7 16.3 17.4 92 0.8 SSW 26 44 14 24 1005.6 1005.3 0.0
19/01:30am 20.0 21.2 19.0 94 0.6 NW 11 15 6 8 1006.6 1006.3 0.0
19/01:00am 20.2 21.5 19.4 95 0.5 NNW 11 15 6 8 1005.5 1005.2 0.0
19/12:30am 19.9 21.5 19.1 95 0.5 NNW 9 13 5 7 1005.4 1005.1 0.0
19/12:00am 20.4 21.7 19.2 93 0.8 NNW 11 15 6 8 1005.5 1005.2 0.0
 
Date/Time
EDT
Temp
°C
App
Temp
°C
Dew
Point
Rel
Hum
%
Delta-T
°C
Wind Press
QNH
hPa
Press
MSL
hPa
Rain
since 9 am
mm
Dir
 
Spd
km/h
Gust
km/h
Spd
kts
Gust
kts
18/11:30pm 20.7 21.5 19.9 95 0.5 N 15 26 8 14 1005.7 1005.4 0.0
18/11:00pm 20.9 21.1 20.6 98 0.2 N 20 32 11 17 1005.7 1005.4 0.0
18/10:30pm 20.9 20.4 20.7 99 0.1 NNE 24 39 13 21 1005.7 1005.4 0.0
18/10:00pm 21.2 20.5 21.0 99 0.1 NNE 26 35 14 19 1005.6 1005.3 0.0
18/09:30pm 21.3 21.0 21.1 99 0.1 NNE 24 33 13 18 1005.7 1005.4 0.0
18/09:00pm 21.3 21.2 20.8 97 0.3 NNE 22 32 12 17 1005.6 1005.3 0.0
18/08:30pm 21.3 21.1 20.5 95 0.5 NNE 22 30 12 16 1005.6 1005.3 0.0
18/08:00pm 21.4 20.6 20.0 92 0.9 NNE 24 32 13 17 1005.2 1004.9 0.0
18/07:30pm 22.0 20.7 19.9 88 1.4 NNE 26 33 14 18 1005.0 1004.7 0.0
18/07:00pm 22.6 20.5 19.8 84 1.8 NNE 30 41 16 22 1004.5 1004.2 0.0
18/06:30pm 23.0 21.2 19.6 81 2.2 NNE 28 35 15 19 1004.5 1004.2 0.0
18/06:00pm 23.6 21.5 19.7 79 2.5 NNE 30 39 16 21 1004.5 1004.2 0.0
18/05:30pm 23.5 21.9 19.2 77 2.7 NNE 26 39 14 21 1004.1 1003.8 0.0
18/05:00pm 23.8 21.9 19.3 76 2.9 NE 28 43 15 23 1004.2 1003.9 0.0
18/04:30pm 24.0 21.5 18.9 73 3.3 NNE 30 41 16 22 1004.2 1003.9 0.0
18/04:13pm 23.9 21.0 18.8 73 3.2 NE 32 50 17 27 1004.5 1004.2 0.0
18/04:00pm 24.0 20.0 18.6 72 3.4 NE 37 48 20 26 1004.5 1004.2 0.0
18/03:30pm 24.2 21.1 18.4 70 3.7 NNE 32 44 17 24 1004.8 1004.5 0.0
18/03:00pm 24.1 20.8 18.3 70 3.7 NE 33 48 18 26 1005.0 1004.7 0.0
18/02:30pm 24.1 21.0 18.5 71 3.5 NE 32 44 17 24 1005.5 1005.2 0.0
18/02:00pm 23.3 20.1 18.2 73 3.2 NE 32 46 17 25 1006.0 1005.7 0.0
18/01:30pm 22.3 19.5 18.3 78 2.5 NE 30 43 16 23 1006.4 1006.1 0.0
18/01:00pm 22.1 20.0 18.1 78 2.5 NE 26 32 14 17 1007.0 1006.7 0.0
18/12:30pm 22.6 20.6 18.2 76 2.8 NE 26 35 14 19 1007.5 1007.3 0.0
18/12:02pm 23.2 20.7 18.1 73 3.2 NNE 28 46 15 25 1007.7 1007.5 0.0
18/12:00pm 23.5 21.1 18.2 72 3.3 NNE 28 41 15 22 1007.8 1007.6 0.0
18/11:30am 22.9 21.1 17.8 73 3.2 NE 24 35 13 19 1008.3 1008.1 0.0
18/11:00am 21.4 19.3 17.2 77 2.6 NNE 24 32 13 17 1008.9 1008.7 0.0
18/10:30am 20.8 19.2 16.6 77 2.6 NNE 20 30 11 16 1009.4 1009.2 0.0
18/10:00am 20.5 19.3 16.1 76 2.7 NNE 17 26 9 14 1009.7 1009.5 0.0
18/09:30am 19.8 19.4 15.2 75 2.7 N 11 17 6 9 1009.9 1009.7 0.0
18/09:00am 19.4 18.9 14.9 75 2.6 N 11 17 6 9 1010.1 1009.9 0.0
18/08:30am 19.2 19.0 14.7 75 2.6 N 9 15 5 8 1010.4 1010.2 0.0
18/08:00am 19.4 18.4 14.6 74 2.8 N 13 20 7 11 1010.3 1010.1 0.0
18/07:30am 18.7 18.9 14.6 77 2.4 N 7 11 4 6 1010.2 1010.0 0.0
18/07:00am 18.1 18.4 14.6 80 2.0 N 6 7 3 4 1010.2 1010.0 0.0
18/06:30am 17.9 18.7 14.8 82 1.8 N 4 7 2 4 1009.7 1009.5 0.0
18/06:00am 17.5 17.7 14.6 83 1.7 N 7 9 4 5 1009.5 1009.3 0.0
18/05:30am 17.5 17.8 14.4 82 1.8 N 6 7 3 4 1009.5 1009.3 0.0
18/05:00am 17.5 18.5 14.2 81 1.9 N 2 7 1 4 1009.5 1009.3 0.0
18/04:30am 17.5 17.4 14.0 80 2.0 N 7 9 4 5 1009.3 1009.1 0.0
18/04:00am 17.5 17.6 14.0 80 2.0 NNW 6 7 3 4 1009.4 1009.2 0.0
18/03:30am 18.0 17.5 13.7 76 2.5 N 9 15 5 8 1009.7 1009.5 0.0
18/03:00am 18.6 17.2 13.5 72 2.9 NE 13 22 7 12 1009.6 1009.4 0.0
18/02:30am 18.4 17.8 13.5 73 2.8 NE 9 15 5 8 1009.8 1009.6 0.0
18/02:00am 18.3 17.5 13.0 71 3.0 NE 9 15 5 8 1010.2 1010.0 0.0
18/01:30am 18.1 17.6 12.8 71 3.0 NE 7 11 4 6 1010.4 1010.2 0.0
18/01:00am 18.3 16.7 12.7 70 3.1 NE 13 17 7 9 1010.8 1010.6 0.0
18/12:30am 18.2 17.3 12.6 70 3.1 NE 9 13 5 7 1011.0 1010.8 0.0
18/12:00am 18.2 17.2 12.4 69 3.2 NE 9 17 5 9 1011.4 1011.1 0.0
 
Date/Time
EDT
Temp
°C
App
Temp
°C
Dew
Point
Rel
Hum
%
Delta-T
°C
Wind Press
QNH
hPa
Press
MSL
hPa
Rain
since 9 am
mm
Dir
 
Spd
km/h
Gust
km/h
Spd
kts
Gust
kts
17/11:30pm 18.3 17.4 12.5 69 3.2 ENE 9 15 5 8 1011.7 1011.4 0.0
17/11:00pm 18.2 17.5 13.3 73 2.8 E 9 15 5 8 1011.9 1011.6 0.0
17/10:30pm 18.1 17.3 13.0 72 2.9 E 9 13 5 7 1012.0 1011.7 0.0
17/10:00pm 18.1 17.4 13.2 73 2.8 E 9 15 5 8 1011.6 1011.3 0.0
17/09:30pm 18.1 17.7 13.0 72 2.9 ESE 7 13 4 7 1011.7 1011.4 0.0
17/09:00pm 18.2 17.2 12.4 69 3.2 E 9 13 5 7 1011.3 1011.0 0.0
17/08:30pm 18.3 17.7 12.3 68 3.3 ESE 7 13 4 7 1010.9 1010.7 0.0
17/08:00pm 18.3 17.2 12.1 67 3.4 ESE 9 17 5 9 1010.5 1010.3 0.0
17/07:30pm 18.4 17.6 11.7 65 3.7 ESE 7 13 4 7 1010.2 1010.0 0.0
17/07:00pm 18.4 16.9 11.9 66 3.6 SE 11 17 6 9 1009.7 1009.5 0.0
17/06:30pm 18.4 17.2 11.5 64 3.8 SE 9 17 5 9 1009.5 1009.3 0.0
17/06:00pm 18.6 17.0 11.7 64 3.8 SE 11 20 6 11 1008.9 1008.7 0.0
17/05:30pm 18.5 16.4 11.1 62 4.0 SE 13 22 7 12 1008.7 1008.5 0.0
17/05:00pm 18.8 16.8 11.4 62 4.1 SE 13 22 7 12 1008.6 1008.4 0.0
17/04:30pm 18.8 16.8 11.6 63 4.0 SE 13 24 7 13 1008.6 1008.4 0.0
17/04:00pm 19.0 17.1 11.8 63 4.0 SE 13 22 7 12 1008.7 1008.5 0.0
17/03:30pm 19.4 16.9 10.9 58 4.6 SE 15 26 8 14 1008.7 1008.5 0.0
17/03:00pm 19.1 16.6 10.9 59 4.5 SE 15 26 8 14 1008.5 1008.3 0.0
17/02:30pm 20.7 17.6 11.6 56 5.1 SE 19 28 10 15 1008.4 1008.2 0.0
17/02:00pm 20.7 17.3 11.1 54 5.3 SE 20 30 11 16 1008.5 1008.3 0.0
17/01:30pm 20.4 16.4 9.0 48 6.0 SSE 20 32 11 17 1008.3 1008.1 0.0
17/01:00pm 19.9 16.3 10.0 53 5.3 SSE 19 30 10 16 1008.2 1008.0 0.0
17/12:30pm 20.0 16.2 11.0 56 4.9 SSE 22 32 12 17 1008.0 1007.8 0.0
17/12:00pm 20.3 17.1 12.0 59 4.7 SSE 20 33 11 18 1008.1 1007.9 0.0
17/11:30am 19.3 15.5 11.1 59 4.5 SSE 22 33 12 18 1008.3 1008.1 0.0
17/11:00am 18.4 14.9 10.3 59 4.4 SSE 19 32 10 17 1007.8 1007.6 0.0
17/10:30am 18.6 15.3 11.7 64 3.8 S 20 30 11 16 1007.7 1007.5 0.0
17/10:00am 18.5 14.7 11.1 62 4.0 S 22 35 12 19 1007.3 1007.0 0.0
17/09:30am 18.3 15.0 11.6 65 3.7 SSE 20 32 11 17 1007.0 1006.7 0.0
17/09:00am 18.3 14.0 10.9 62 4.0 S 24 35 13 19 1006.7 1006.4 0.4
17/08:30am 18.3 15.1 11.8 66 3.6 SSE 20 30 11 16 1006.6 1006.3 0.4
17/08:00am 18.3 14.2 11.6 65 3.7 S 24 39 13 21 1006.1 1005.8 0.4
17/07:30am 18.3 14.5 12.5 69 3.2 SSE 24 39 13 21 1005.7 1005.4 0.4
17/07:00am 18.3 14.6 12.7 70 3.2 S 24 32 13 17 1004.9 1004.6 0.4
17/06:30am 18.3 15.3 12.5 69 3.2 S 20 33 11 18 1004.3 1004.0 0.4
17/06:00am 18.3 14.7 13.0 71 3.0 SSE 24 35 13 19 1003.8 1003.5 0.4
17/05:30am 18.4 14.7 13.9 75 2.6 S 26 43 14 23 1003.3 1003.0 0.4
17/05:00am 18.5 14.5 14.2 76 2.5 S 28 43 15 23 1002.6 1002.3 0.4
17/04:30am 18.5 15.1 14.8 79 2.2 S 26 43 14 23 1002.1 1001.8 0.4
17/04:00am 18.6 15.3 15.1 80 2.1 S 26 43 14 23 1001.3 1001.0 0.4
17/03:35am 18.8 15.3 15.5 81 2.0 S 28 46 15 25 1000.6 1000.3 0.4
17/03:30am 18.7 14.8 15.4 81 1.9 S 30 46 16 25 1000.5 1000.2 0.4
17/03:00am 19.2 14.9 17.0 87 1.3 SSW 35 54 19 29 1000.1 999.8 0.4
17/02:30am 19.8 16.9 17.9 89 1.2 SW 30 50 16 27 999.0 998.7 0.4
17/02:19am 19.4 16.6 17.2 87 1.3 SW 28 46 15 25 998.8 998.5 0.4
17/02:00am 21.1 19.3 15.6 71 3.3 W 19 44 10 24 998.3 998.1 0.4
17/01:30am 21.9 21.4 14.8 64 4.2 NNW 11 15 6 8 997.0 996.7 0.4
17/01:00am 21.5 20.9 16.7 74 2.9 NNW 15 20 8 11 997.5 997.3 0.4
17/12:30am 21.0 21.4 18.2 84 1.7 N 13 17 7 9 997.2 997.0 0.4
17/12:00am 20.3 19.9 18.8 91 0.9 N 19 24 10 13 997.3 997.1 0.4
 
Date/Time
EDT
Temp
°C
App
Temp
°C
Dew
Point
Rel
Hum
%
Delta-T
°C
Wind Press
QNH
hPa
Press
MSL
hPa
Rain
since 9 am
mm
Dir
 
Spd
km/h
Gust
km/h
Spd
kts
Gust
kts
16/11:30pm 20.6 20.3 19.1 91 0.9 N 19 26 10 14 996.8 996.5 0.4

Other Formats:

Comma delimited format used in spreadsheet applications
http://www.bom.gov.au/fwo/IDN60801/IDN60801.95940.axf

JavaScript Object Notation format (JSON) in row-major order
http://www.bom.gov.au/fwo/IDN60801/IDN60801.95940.json